sensor_id;sensor_type;location;lat;lon;timestamp;P1;durP1;ratioP1;P2;durP2;ratioP2
73315;SDS011;61545;53.726;-0.444;2022-11-20T00:00:41;6.8;;;3.3;;
73315;SDS011;61545;53.726;-0.444;2022-11-20T00:05:41;5.3;;;2.7;;
73315;SDS011;61545;53.726;-0.444;2022-11-20T00:10:41;5.3;;;2.7;;
73315;SDS011;61545;53.726;-0.444;2022-11-20T00:15:41;8.3;;;3.1;;
73315;SDS011;61545;53.726;-0.444;2022-11-20T00:20:41;8.1;;;2.2;;
73315;SDS011;61545;53.726;-0.444;2022-11-20T00:25:41;5.1;;;2.3;;
73315;SDS011;61545;53.726;-0.444;2022-11-20T00:30:41;5.7;;;2.4;;
73315;SDS011;61545;53.726;-0.444;2022-11-20T00:35:41;7.2;;;2.7;;
73315;SDS011;61545;53.726;-0.444;2022-11-20T00:40:41;7.2;;;2.7;;
73315;SDS011;61545;53.726;-0.444;2022-11-20T00:45:41;5.7;;;2.3;;
73315;SDS011;61545;53.726;-0.444;2022-11-20T00:50:41;5.2;;;2.3;;
73315;SDS011;61545;53.726;-0.444;2022-11-20T00:55:41;7.4;;;2.8;;
73315;SDS011;61545;53.726;-0.444;2022-11-20T01:00:41;7.5;;;2.8;;
73315;SDS011;61545;53.726;-0.444;2022-11-20T01:05:41;7.4;;;2.3;;
73315;SDS011;61545;53.726;-0.444;2022-11-20T01:10:41;7.4;;;2.3;;
73315;SDS011;61545;53.726;-0.444;2022-11-20T01:15:41;5.9;;;2.8;;
73315;SDS011;61545;53.726;-0.444;2022-11-20T01:20:41;6.3;;;2.8;;
73315;SDS011;61545;53.726;-0.444;2022-11-20T01:25:41;7.6;;;3.1;;
73315;SDS011;61545;53.726;-0.444;2022-11-20T01:30:41;9.2;;;3.4;;
73315;SDS011;61545;53.726;-0.444;2022-11-20T01:35:41;6.0;;;3.2;;
73315;SDS011;61545;53.726;-0.444;2022-11-20T01:40:41;6.0;;;3.2;;
73315;SDS011;61545;53.726;-0.444;2022-11-20T01:45:52;7.2;;;3.1;;
73315;SDS011;61545;53.726;-0.444;2022-11-20T01:50:41;5.3;;;2.8;;
73315;SDS011;61545;53.726;-0.444;2022-11-20T01:55:42;5.1;;;3.1;;
73315;SDS011;61545;53.726;-0.444;2022-11-20T02:00:41;7.4;;;3.6;;
73315;SDS011;61545;53.726;-0.444;2022-11-20T02:05:43;6.0;;;2.8;;
73315;SDS011;61545;53.726;-0.444;2022-11-20T02:10:41;6.0;;;2.8;;
73315;SDS011;61545;53.726;-0.444;2022-11-20T02:15:41;8.2;;;3.2;;
73315;SDS011;61545;53.726;-0.444;2022-11-20T02:20:41;5.7;;;3.1;;
73315;SDS011;61545;53.726;-0.444;2022-11-20T02:25:41;12.3;;;4.6;;
73315;SDS011;61545;53.726;-0.444;2022-11-20T02:30:41;6.8;;;3.4;;
73315;SDS011;61545;53.726;-0.444;2022-11-20T02:35:43;10.6;;;4.4;;
73315;SDS011;61545;53.726;-0.444;2022-11-20T02:40:41;10.6;;;4.4;;
73315;SDS011;61545;53.726;-0.444;2022-11-20T02:45:41;7.8;;;4;;
73315;SDS011;61545;53.726;-0.444;2022-11-20T02:50:41;4.3;;;3;;
73315;SDS011;61545;53.726;-0.444;2022-11-20T02:55:41;10.4;;;5;;
73315;SDS011;61545;53.726;-0.444;2022-11-20T03:00:41;8.6;;;4.3;;
73315;SDS011;61545;53.726;-0.444;2022-11-20T03:05:41;8.7;;;4.4;;
73315;SDS011;61545;53.726;-0.444;2022-11-20T03:10:41;8.7;;;4.4;;
73315;SDS011;61545;53.726;-0.444;2022-11-20T03:15:41;8.9;;;4.8;;
73315;SDS011;61545;53.726;-0.444;2022-11-20T03:20:41;10.4;;;5.3;;
73315;SDS011;61545;53.726;-0.444;2022-11-20T03:25:41;11.0;;;4.9;;
73315;SDS011;61545;53.726;-0.444;2022-11-20T03:30:41;10.9;;;5.2;;
73315;SDS011;61545;53.726;-0.444;2022-11-20T03:35:41;8.2;;;5;;
73315;SDS011;61545;53.726;-0.444;2022-11-20T03:40:41;8.2;;;5;;
73315;SDS011;61545;53.726;-0.444;2022-11-20T03:45:41;11.8;;;6.3;;
73315;SDS011;61545;53.726;-0.444;2022-11-20T03:50:41;14.7;;;6.5;;
73315;SDS011;61545;53.726;-0.444;2022-11-20T03:55:41;11.6;;;6.4;;
73315;SDS011;61545;53.726;-0.444;2022-11-20T04:00:41;13.8;;;7.2;;
73315;SDS011;61545;53.726;-0.444;2022-11-20T04:05:41;15.3;;;7.3;;
73315;SDS011;61545;53.726;-0.444;2022-11-20T04:10:41;15.3;;;7.3;;
73315;SDS011;61545;53.726;-0.444;2022-11-20T04:15:41;13.2;;;7.9;;
73315;SDS011;61545;53.726;-0.444;2022-11-20T04:20:41;12.6;;;7.7;;
73315;SDS011;61545;53.726;-0.444;2022-11-20T04:25:41;16.8;;;8.3;;
73315;SDS011;61545;53.726;-0.444;2022-11-20T04:30:41;14.9;;;9.3;;
73315;SDS011;61545;53.726;-0.444;2022-11-20T04:35:41;17.9;;;9.9;;
73315;SDS011;61545;53.726;-0.444;2022-11-20T04:40:41;17.9;;;9.9;;
73315;SDS011;61545;53.726;-0.444;2022-11-20T04:45:41;19.5;;;10.1;;
73315;SDS011;61545;53.726;-0.444;2022-11-20T04:50:41;17.2;;;10;;
73315;SDS011;61545;53.726;-0.444;2022-11-20T04:55:41;20.2;;;10.9;;
73315;SDS011;61545;53.726;-0.444;2022-11-20T05:00:41;16.9;;;10.1;;
73315;SDS011;61545;53.726;-0.444;2022-11-20T05:05:41;17.7;;;9.4;;
73315;SDS011;61545;53.726;-0.444;2022-11-20T05:10:41;17.7;;;9.4;;
73315;SDS011;61545;53.726;-0.444;2022-11-20T05:15:41;22.4;;;10.6;;
73315;SDS011;61545;53.726;-0.444;2022-11-20T05:20:41;18.7;;;11.2;;
73315;SDS011;61545;53.726;-0.444;2022-11-20T05:25:41;16.3;;;9;;
73315;SDS011;61545;53.726;-0.444;2022-11-20T05:30:41;20.5;;;9.9;;
73315;SDS011;61545;53.726;-0.444;2022-11-20T05:35:41;14.8;;;8.1;;
73315;SDS011;61545;53.726;-0.444;2022-11-20T05:40:41;14.8;;;8.1;;
73315;SDS011;61545;53.726;-0.444;2022-11-20T05:45:41;20.6;;;9.6;;
73315;SDS011;61545;53.726;-0.444;2022-11-20T05:50:41;16.2;;;8.5;;
73315;SDS011;61545;53.726;-0.444;2022-11-20T05:55:41;15.6;;;8.7;;
73315;SDS011;61545;53.726;-0.444;2022-11-20T06:00:41;20.3;;;9;;
73315;SDS011;61545;53.726;-0.444;2022-11-20T06:05:41;14.8;;;7.9;;
73315;SDS011;61545;53.726;-0.444;2022-11-20T06:10:41;14.8;;;7.9;;
73315;SDS011;61545;53.726;-0.444;2022-11-20T06:15:41;14.7;;;7.7;;
73315;SDS011;61545;53.726;-0.444;2022-11-20T06:20:41;15.6;;;7.3;;
73315;SDS011;61545;53.726;-0.444;2022-11-20T06:25:41;12.7;;;5.9;;
73315;SDS011;61545;53.726;-0.444;2022-11-20T06:30:44;13.9;;;6.3;;
73315;SDS011;61545;53.726;-0.444;2022-11-20T06:35:41;10.6;;;6.4;;
73315;SDS011;61545;53.726;-0.444;2022-11-20T06:40:41;10.6;;;6.4;;
73315;SDS011;61545;53.726;-0.444;2022-11-20T06:45:41;13.8;;;7.8;;
73315;SDS011;61545;53.726;-0.444;2022-11-20T06:50:41;13.1;;;6.8;;
73315;SDS011;61545;53.726;-0.444;2022-11-20T06:55:42;11.8;;;6.8;;
73315;SDS011;61545;53.726;-0.444;2022-11-20T07:00:41;15.6;;;6.9;;
73315;SDS011;61545;53.726;-0.444;2022-11-20T07:05:41;12.0;;;6.8;;
73315;SDS011;61545;53.726;-0.444;2022-11-20T07:10:41;12.0;;;6.8;;
73315;SDS011;61545;53.726;-0.444;2022-11-20T07:15:41;10.7;;;6.1;;
73315;SDS011;61545;53.726;-0.444;2022-11-20T07:20:41;11.8;;;6.9;;
73315;SDS011;61545;53.726;-0.444;2022-11-20T07:25:41;11.1;;;6.1;;
73315;SDS011;61545;53.726;-0.444;2022-11-20T07:30:41;11.1;;;5.9;;
73315;SDS011;61545;53.726;-0.444;2022-11-20T07:35:41;10.4;;;5.4;;
73315;SDS011;61545;53.726;-0.444;2022-11-20T07:40:41;10.4;;;5.4;;
73315;SDS011;61545;53.726;-0.444;2022-11-20T07:45:41;7.8;;;4.4;;
73315;SDS011;61545;53.726;-0.444;2022-11-20T07:50:41;6.8;;;4;;
73315;SDS011;61545;53.726;-0.444;2022-11-20T07:55:41;5.8;;;3.6;;
73315;SDS011;61545;53.726;-0.444;2022-11-20T08:00:41;5.7;;;3.4;;
73315;SDS011;61545;53.726;-0.444;2022-11-20T08:05:41;6.5;;;4.1;;
73315;SDS011;61545;53.726;-0.444;2022-11-20T08:10:41;6.5;;;4.1;;
73315;SDS011;61545;53.726;-0.444;2022-11-20T08:15:41;7.3;;;4.1;;
73315;SDS011;61545;53.726;-0.444;2022-11-20T08:20:41;7.2;;;4.5;;
73315;SDS011;61545;53.726;-0.444;2022-11-20T08:25:41;6.1;;;4.3;;
73315;SDS011;61545;53.726;-0.444;2022-11-20T08:30:41;7.1;;;4.7;;
73315;SDS011;61545;53.726;-0.444;2022-11-20T08:35:41;8.2;;;5.3;;
73315;SDS011;61545;53.726;-0.444;2022-11-20T08:40:41;8.2;;;5.3;;
73315;SDS011;61545;53.726;-0.444;2022-11-20T08:45:41;8.2;;;5.7;;
73315;SDS011;61545;53.726;-0.444;2022-11-20T08:50:41;11.4;;;6;;
73315;SDS011;61545;53.726;-0.444;2022-11-20T08:55:41;11.3;;;7.2;;
73315;SDS011;61545;53.726;-0.444;2022-11-20T09:00:41;8.7;;;5.7;;
73315;SDS011;61545;53.726;-0.444;2022-11-20T09:05:41;10.6;;;6.8;;
73315;SDS011;61545;53.726;-0.444;2022-11-20T09:10:41;10.6;;;6.8;;
73315;SDS011;61545;53.726;-0.444;2022-11-20T09:15:41;12.7;;;7.9;;
73315;SDS011;61545;53.726;-0.444;2022-11-20T09:20:41;11.8;;;7.2;;
73315;SDS011;61545;53.726;-0.444;2022-11-20T09:25:41;11.3;;;7;;
73315;SDS011;61545;53.726;-0.444;2022-11-20T09:30:41;10.8;;;6.5;;
73315;SDS011;61545;53.726;-0.444;2022-11-20T09:35:41;12.5;;;7.7;;
73315;SDS011;61545;53.726;-0.444;2022-11-20T09:40:44;12.5;;;7.7;;
73315;SDS011;61545;53.726;-0.444;2022-11-20T09:45:49;12.2;;;5.9;;
73315;SDS011;61545;53.726;-0.444;2022-11-20T09:50:43;12.0;;;6;;
73315;SDS011;61545;53.726;-0.444;2022-11-20T09:55:41;8.8;;;5.4;;
73315;SDS011;61545;53.726;-0.444;2022-11-20T10:00:41;6.9;;;3.9;;
73315;SDS011;61545;53.726;-0.444;2022-11-20T10:05:43;6.6;;;4;;
73315;SDS011;61545;53.726;-0.444;2022-11-20T10:10:42;6.6;;;4;;
73315;SDS011;61545;53.726;-0.444;2022-11-20T10:15:44;9.4;;;4;;
73315;SDS011;61545;53.726;-0.444;2022-11-20T10:20:46;6.4;;;3.8;;
73315;SDS011;61545;53.726;-0.444;2022-11-20T10:25:43;7.0;;;3.6;;
73315;SDS011;61545;53.726;-0.444;2022-11-20T10:30:42;5.8;;;3.7;;
73315;SDS011;61545;53.726;-0.444;2022-11-20T10:35:42;8.5;;;4.9;;
73315;SDS011;61545;53.726;-0.444;2022-11-20T10:40:42;8.5;;;4.9;;
73315;SDS011;61545;53.726;-0.444;2022-11-20T10:45:46;7.6;;;4.1;;
73315;SDS011;61545;53.726;-0.444;2022-11-20T10:50:47;8.9;;;3.9;;
73315;SDS011;61545;53.726;-0.444;2022-11-20T10:55:43;5.4;;;3;;
73315;SDS011;61545;53.726;-0.444;2022-11-20T11:00:41;7.7;;;2.7;;
73315;SDS011;61545;53.726;-0.444;2022-11-20T11:05:43;7.4;;;3.1;;
73315;SDS011;61545;53.726;-0.444;2022-11-20T11:10:44;7.4;;;3.1;;
73315;SDS011;61545;53.726;-0.444;2022-11-20T11:15:41;8.1;;;3;;
73315;SDS011;61545;53.726;-0.444;2022-11-20T11:20:49;10.6;;;3.4;;
73315;SDS011;61545;53.726;-0.444;2022-11-20T11:25:41;5.9;;;2.9;;
73315;SDS011;61545;53.726;-0.444;2022-11-20T11:30:42;11.1;;;3.3;;
73315;SDS011;61545;53.726;-0.444;2022-11-20T11:35:44;6.7;;;2.4;;
73315;SDS011;61545;53.726;-0.444;2022-11-20T11:40:41;6.7;;;2.4;;
73315;SDS011;61545;53.726;-0.444;2022-11-20T11:45:51;5.4;;;2.3;;
73315;SDS011;61545;53.726;-0.444;2022-11-20T11:50:47;9.5;;;3;;
73315;SDS011;61545;53.726;-0.444;2022-11-20T11:55:43;11.2;;;3.4;;
73315;SDS011;61545;53.726;-0.444;2022-11-20T12:00:47;10.9;;;3;;
73315;SDS011;61545;53.726;-0.444;2022-11-20T12:05:42;13.1;;;3.1;;
73315;SDS011;61545;53.726;-0.444;2022-11-20T12:10:44;13.1;;;3.1;;
73315;SDS011;61545;53.726;-0.444;2022-11-20T12:15:43;13.3;;;3.5;;
73315;SDS011;61545;53.726;-0.444;2022-11-20T12:20:53;9.5;;;2.7;;
73315;SDS011;61545;53.726;-0.444;2022-11-20T12:25:41;13.1;;;3;;
73315;SDS011;61545;53.726;-0.444;2022-11-20T12:30:42;17.2;;;2.8;;
73315;SDS011;61545;53.726;-0.444;2022-11-20T12:35:48;9.4;;;2.3;;
73315;SDS011;61545;53.726;-0.444;2022-11-20T12:40:43;9.4;;;2.3;;
73315;SDS011;61545;53.726;-0.444;2022-11-20T12:45:50;12.0;;;2.5;;
73315;SDS011;61545;53.726;-0.444;2022-11-20T12:50:46;8.6;;;2.3;;
73315;SDS011;61545;53.726;-0.444;2022-11-20T12:55:44;11.6;;;2.3;;
73315;SDS011;61545;53.726;-0.444;2022-11-20T13:00:43;13.0;;;2.4;;
73315;SDS011;61545;53.726;-0.444;2022-11-20T13:05:46;13.2;;;2.4;;
73315;SDS011;61545;53.726;-0.444;2022-11-20T13:10:43;13.2;;;2.4;;
73315;SDS011;61545;53.726;-0.444;2022-11-20T13:15:46;11.5;;;2.1;;
73315;SDS011;61545;53.726;-0.444;2022-11-20T13:20:42;15.8;;;3.2;;
73315;SDS011;61545;53.726;-0.444;2022-11-20T13:25:41;10.5;;;1.9;;
73315;SDS011;61545;53.726;-0.444;2022-11-20T13:30:48;15.9;;;3.2;;
73315;SDS011;61545;53.726;-0.444;2022-11-20T13:35:42;8.7;;;1.7;;
73315;SDS011;61545;53.726;-0.444;2022-11-20T13:40:50;8.7;;;1.7;;
73315;SDS011;61545;53.726;-0.444;2022-11-20T13:45:41;12.9;;;2.6;;
73315;SDS011;61545;53.726;-0.444;2022-11-20T13:50:46;13.2;;;2.7;;
73315;SDS011;61545;53.726;-0.444;2022-11-20T13:55:43;8.8;;;2.1;;
73315;SDS011;61545;53.726;-0.444;2022-11-20T14:00:44;9.1;;;2;;
73315;SDS011;61545;53.726;-0.444;2022-11-20T14:05:49;8.6;;;1.8;;
73315;SDS011;61545;53.726;-0.444;2022-11-20T14:10:41;8.6;;;1.8;;
73315;SDS011;61545;53.726;-0.444;2022-11-20T14:15:41;13.7;;;2.1;;
73315;SDS011;61545;53.726;-0.444;2022-11-20T14:20:41;10.0;;;2.1;;
73315;SDS011;61545;53.726;-0.444;2022-11-20T14:25:42;14.2;;;2.3;;
73315;SDS011;61545;53.726;-0.444;2022-11-20T14:30:43;8.4;;;2;;
73315;SDS011;61545;53.726;-0.444;2022-11-20T14:35:44;10.2;;;2.2;;
73315;SDS011;61545;53.726;-0.444;2022-11-20T14:40:41;10.2;;;2.2;;
73315;SDS011;61545;53.726;-0.444;2022-11-20T14:45:41;13.6;;;2.7;;
73315;SDS011;61545;53.726;-0.444;2022-11-20T14:50:41;15.9;;;2.9;;
73315;SDS011;61545;53.726;-0.444;2022-11-20T14:55:41;10.7;;;2.4;;
73315;SDS011;61545;53.726;-0.444;2022-11-20T15:00:41;10.8;;;2.2;;
73315;SDS011;61545;53.726;-0.444;2022-11-20T15:05:45;11.1;;;2.8;;
73315;SDS011;61545;53.726;-0.444;2022-11-20T15:10:45;11.1;;;2.8;;
73315;SDS011;61545;53.726;-0.444;2022-11-20T15:15:44;14.1;;;2.9;;
73315;SDS011;61545;53.726;-0.444;2022-11-20T15:20:41;13.6;;;2.5;;
73315;SDS011;61545;53.726;-0.444;2022-11-20T15:25:41;14.9;;;2.9;;
73315;SDS011;61545;53.726;-0.444;2022-11-20T15:30:41;10.8;;;2.3;;
73315;SDS011;61545;53.726;-0.444;2022-11-20T15:35:41;11.8;;;3;;
73315;SDS011;61545;53.726;-0.444;2022-11-20T15:40:41;11.8;;;3;;
73315;SDS011;61545;53.726;-0.444;2022-11-20T15:45:42;15.0;;;3.6;;
73315;SDS011;61545;53.726;-0.444;2022-11-20T15:50:44;13.3;;;3.1;;
73315;SDS011;61545;53.726;-0.444;2022-11-20T15:55:41;10.4;;;2.5;;
73315;SDS011;61545;53.726;-0.444;2022-11-20T16:00:41;11.3;;;2.7;;
73315;SDS011;61545;53.726;-0.444;2022-11-20T16:05:41;13.0;;;2;;
73315;SDS011;61545;53.726;-0.444;2022-11-20T16:10:41;13.0;;;2;;
73315;SDS011;61545;53.726;-0.444;2022-11-20T16:15:41;10.1;;;2.3;;
73315;SDS011;61545;53.726;-0.444;2022-11-20T16:20:41;13.3;;;2.4;;
73315;SDS011;61545;53.726;-0.444;2022-11-20T16:25:41;18.7;;;6.3;;
73315;SDS011;61545;53.726;-0.444;2022-11-20T16:30:41;16.8;;;3.6;;
73315;SDS011;61545;53.726;-0.444;2022-11-20T16:35:41;16.3;;;3.5;;
73315;SDS011;61545;53.726;-0.444;2022-11-20T16:40:41;16.3;;;3.5;;
73315;SDS011;61545;53.726;-0.444;2022-11-20T16:45:42;18.2;;;5.2;;
73315;SDS011;61545;53.726;-0.444;2022-11-20T16:50:44;17.2;;;3.6;;
73315;SDS011;61545;53.726;-0.444;2022-11-20T16:55:41;12.4;;;2.9;;
73315;SDS011;61545;53.726;-0.444;2022-11-20T17:00:41;11.0;;;2.9;;
73315;SDS011;61545;53.726;-0.444;2022-11-20T17:05:41;14.6;;;5.1;;
73315;SDS011;61545;53.726;-0.444;2022-11-20T17:10:41;14.6;;;5.1;;
73315;SDS011;61545;53.726;-0.444;2022-11-20T17:15:41;14.5;;;6.3;;
73315;SDS011;61545;53.726;-0.444;2022-11-20T17:20:41;17.6;;;6.2;;
73315;SDS011;61545;53.726;-0.444;2022-11-20T17:25:41;11.2;;;3.4;;
73315;SDS011;61545;53.726;-0.444;2022-11-20T17:30:41;5.7;;;2.1;;
73315;SDS011;61545;53.726;-0.444;2022-11-20T17:35:41;5.2;;;1.9;;
73315;SDS011;61545;53.726;-0.444;2022-11-20T17:40:41;5.2;;;1.9;;
73315;SDS011;61545;53.726;-0.444;2022-11-20T17:45:41;5.4;;;1.8;;
73315;SDS011;61545;53.726;-0.444;2022-11-20T17:50:41;7.1;;;2;;
73315;SDS011;61545;53.726;-0.444;2022-11-20T17:55:41;8.2;;;2.7;;
73315;SDS011;61545;53.726;-0.444;2022-11-20T18:00:41;5.9;;;2;;
73315;SDS011;61545;53.726;-0.444;2022-11-20T18:05:41;4.7;;;1.7;;
73315;SDS011;61545;53.726;-0.444;2022-11-20T18:10:41;4.7;;;1.7;;
73315;SDS011;61545;53.726;-0.444;2022-11-20T18:15:41;8.2;;;2.2;;
73315;SDS011;61545;53.726;-0.444;2022-11-20T18:20:41;7.1;;;1.7;;
73315;SDS011;61545;53.726;-0.444;2022-11-20T18:25:41;9.9;;;2;;
73315;SDS011;61545;53.726;-0.444;2022-11-20T18:30:41;5.9;;;1.8;;
73315;SDS011;61545;53.726;-0.444;2022-11-20T18:35:41;6.1;;;1.6;;
73315;SDS011;61545;53.726;-0.444;2022-11-20T18:40:41;6.1;;;1.6;;
73315;SDS011;61545;53.726;-0.444;2022-11-20T18:45:41;5.5;;;2.1;;
73315;SDS011;61545;53.726;-0.444;2022-11-20T18:50:41;6.6;;;2.9;;
73315;SDS011;61545;53.726;-0.444;2022-11-20T18:55:41;4.1;;;1.7;;
73315;SDS011;61545;53.726;-0.444;2022-11-20T19:00:41;2.7;;;1.7;;
73315;SDS011;61545;53.726;-0.444;2022-11-20T19:05:41;4.1;;;2.4;;
73315;SDS011;61545;53.726;-0.444;2022-11-20T19:10:41;4.1;;;2.4;;
73315;SDS011;61545;53.726;-0.444;2022-11-20T19:15:41;3.8;;;2.1;;
73315;SDS011;61545;53.726;-0.444;2022-11-20T19:20:41;2.4;;;1.5;;
73315;SDS011;61545;53.726;-0.444;2022-11-20T19:25:41;3.8;;;1.5;;
73315;SDS011;61545;53.726;-0.444;2022-11-20T19:30:41;3.1;;;1.2;;
73315;SDS011;61545;53.726;-0.444;2022-11-20T19:35:41;4.3;;;1.2;;
73315;SDS011;61545;53.726;-0.444;2022-11-20T19:40:41;4.3;;;1.2;;
73315;SDS011;61545;53.726;-0.444;2022-11-20T19:45:41;3.2;;;1.9;;
73315;SDS011;61545;53.726;-0.444;2022-11-20T19:50:41;3.0;;;1.8;;
73315;SDS011;61545;53.726;-0.444;2022-11-20T19:55:41;3.1;;;1.4;;
73315;SDS011;61545;53.726;-0.444;2022-11-20T20:00:41;3.2;;;1.6;;
73315;SDS011;61545;53.726;-0.444;2022-11-20T20:05:41;5.0;;;1.8;;
73315;SDS011;61545;53.726;-0.444;2022-11-20T20:10:41;5.0;;;1.8;;
73315;SDS011;61545;53.726;-0.444;2022-11-20T20:15:41;3.3;;;1.8;;
73315;SDS011;61545;53.726;-0.444;2022-11-20T20:20:41;7.5;;;3.3;;
73315;SDS011;61545;53.726;-0.444;2022-11-20T20:25:41;7.8;;;3.9;;
73315;SDS011;61545;53.726;-0.444;2022-11-20T20:30:41;6.4;;;3.5;;
73315;SDS011;61545;53.726;-0.444;2022-11-20T20:35:41;7.9;;;4.4;;
73315;SDS011;61545;53.726;-0.444;2022-11-20T20:40:45;7.9;;;4.4;;
73315;SDS011;61545;53.726;-0.444;2022-11-20T20:45:45;8.5;;;4.1;;
73315;SDS011;61545;53.726;-0.444;2022-11-20T20:50:41;5.4;;;2.7;;
73315;SDS011;61545;53.726;-0.444;2022-11-20T20:55:41;4.4;;;2.7;;
73315;SDS011;61545;53.726;-0.444;2022-11-20T21:00:41;2.7;;;1.8;;
73315;SDS011;61545;53.726;-0.444;2022-11-20T21:05:41;2.8;;;1.6;;
73315;SDS011;61545;53.726;-0.444;2022-11-20T21:10:41;2.8;;;1.6;;
73315;SDS011;61545;53.726;-0.444;2022-11-20T21:15:41;4.7;;;2.2;;
73315;SDS011;61545;53.726;-0.444;2022-11-20T21:20:41;6.9;;;2.4;;
73315;SDS011;61545;53.726;-0.444;2022-11-20T21:25:41;3.9;;;2.2;;
73315;SDS011;61545;53.726;-0.444;2022-11-20T21:30:41;2.8;;;1.9;;
73315;SDS011;61545;53.726;-0.444;2022-11-20T21:35:41;3.5;;;2;;
73315;SDS011;61545;53.726;-0.444;2022-11-20T21:40:41;3.5;;;2;;
73315;SDS011;61545;53.726;-0.444;2022-11-20T21:45:41;3.5;;;1.7;;
73315;SDS011;61545;53.726;-0.444;2022-11-20T21:50:41;6.0;;;2.6;;
73315;SDS011;61545;53.726;-0.444;2022-11-20T21:55:41;6.6;;;2.3;;
73315;SDS011;61545;53.726;-0.444;2022-11-20T22:00:43;5.1;;;2.4;;
73315;SDS011;61545;53.726;-0.444;2022-11-20T22:05:41;6.6;;;3.4;;
73315;SDS011;61545;53.726;-0.444;2022-11-20T22:10:41;6.6;;;3.4;;
73315;SDS011;61545;53.726;-0.444;2022-11-20T22:15:43;7.6;;;3.1;;
73315;SDS011;61545;53.726;-0.444;2022-11-20T22:20:41;6.5;;;2.7;;
73315;SDS011;61545;53.726;-0.444;2022-11-20T22:25:41;6.8;;;2.8;;
73315;SDS011;61545;53.726;-0.444;2022-11-20T22:30:41;4.3;;;2.3;;
73315;SDS011;61545;53.726;-0.444;2022-11-20T22:35:41;3.1;;;1.8;;
73315;SDS011;61545;53.726;-0.444;2022-11-20T22:40:41;3.1;;;1.8;;
73315;SDS011;61545;53.726;-0.444;2022-11-20T22:45:41;3.0;;;1.8;;
73315;SDS011;61545;53.726;-0.444;2022-11-20T22:50:41;6.7;;;2.8;;
73315;SDS011;61545;53.726;-0.444;2022-11-20T22:55:41;4.7;;;2.3;;
73315;SDS011;61545;53.726;-0.444;2022-11-20T23:00:41;4.7;;;2.3;;
73315;SDS011;61545;53.726;-0.444;2022-11-20T23:05:41;6.1;;;2.9;;
73315;SDS011;61545;53.726;-0.444;2022-11-20T23:10:41;6.1;;;2.9;;
73315;SDS011;61545;53.726;-0.444;2022-11-20T23:15:41;5.5;;;2.9;;
73315;SDS011;61545;53.726;-0.444;2022-11-20T23:20:41;5.0;;;2.8;;
73315;SDS011;61545;53.726;-0.444;2022-11-20T23:25:41;5.6;;;2.5;;
73315;SDS011;61545;53.726;-0.444;2022-11-20T23:30:41;6.9;;;2.6;;
73315;SDS011;61545;53.726;-0.444;2022-11-20T23:35:41;8.4;;;3;;
73315;SDS011;61545;53.726;-0.444;2022-11-20T23:40:45;8.4;;;3;;
73315;SDS011;61545;53.726;-0.444;2022-11-20T23:45:41;9.7;;;3.1;;
73315;SDS011;61545;53.726;-0.444;2022-11-20T23:50:41;6.3;;;3;;
73315;SDS011;61545;53.726;-0.444;2022-11-20T23:55:43;6.2;;;2.8;;
